createdAt,value
2017-09-08T00:00:08.666Z,71.90
2017-09-08T00:02:36.272Z,72.00
2017-09-08T00:05:03.831Z,71.90
2017-09-08T00:07:31.904Z,72.00
2017-09-08T00:09:59.459Z,72.10
2017-09-08T00:12:27.026Z,72.10
2017-09-08T00:14:54.722Z,72.30
2017-09-08T00:17:23.066Z,72.20
2017-09-08T00:19:51.028Z,72.10
2017-09-08T00:22:18.602Z,71.70
2017-09-08T00:24:46.150Z,72.00
2017-09-08T00:27:13.747Z,72.10
2017-09-08T00:29:41.315Z,72.10
2017-09-08T00:32:09.760Z,72.00
2017-09-08T00:34:37.318Z,72.00
2017-09-08T00:37:04.906Z,71.80
2017-09-08T00:39:33.307Z,71.80
2017-09-08T00:42:00.895Z,71.70
2017-09-08T00:44:28.812Z,71.70
2017-09-08T00:46:56.408Z,71.60
2017-09-08T00:49:24.005Z,71.60
2017-09-08T00:51:51.755Z,71.60
2017-09-08T00:54:19.327Z,71.50
2017-09-08T00:56:48.008Z,71.60
2017-09-08T00:59:15.555Z,71.70
2017-09-08T01:01:43.120Z,71.80
2017-09-08T01:04:10.726Z,72.00
2017-09-08T01:06:38.287Z,72.00
2017-09-08T01:09:06.323Z,72.00
2017-09-08T01:11:34.175Z,72.30
2017-09-08T01:14:01.718Z,71.90
2017-09-08T01:16:29.304Z,71.90
2017-09-08T01:18:56.850Z,72.00
2017-09-08T01:21:25.059Z,72.10
2017-09-08T01:23:53.378Z,72.70
2017-09-08T01:26:20.976Z,72.60
2017-09-08T01:28:49.583Z,72.80
2017-09-08T01:31:17.181Z,72.70
2017-09-08T01:33:45.173Z,72.80
2017-09-08T01:36:12.711Z,72.70
2017-09-08T01:38:40.291Z,72.60
2017-09-08T01:41:07.903Z,72.70
2017-09-08T01:43:35.459Z,72.40
2017-09-08T01:46:04.114Z,72.40
2017-09-08T01:48:31.718Z,72.30
2017-09-08T01:50:59.331Z,72.30
2017-09-08T01:53:26.931Z,72.30
2017-09-08T01:55:55.296Z,72.10
2017-09-08T01:58:24.070Z,72.10
2017-09-08T02:00:51.611Z,71.70
2017-09-08T02:03:19.169Z,71.70
2017-09-08T02:05:46.788Z,71.70
2017-09-08T02:08:14.592Z,71.70
2017-09-08T02:10:43.220Z,71.80
2017-09-08T02:13:11.558Z,71.70
2017-09-08T02:15:39.202Z,71.70
2017-09-08T02:18:06.841Z,71.60
2017-09-08T02:20:34.411Z,71.70
2017-09-08T02:23:02.423Z,71.50
2017-09-08T02:25:30.016Z,71.50
2017-09-08T02:27:57.737Z,71.40
2017-09-08T02:30:25.380Z,71.40
2017-09-08T02:32:52.939Z,71.20
2017-09-08T02:35:20.787Z,71.30
2017-09-08T02:37:48.402Z,71.30
2017-09-08T02:40:15.957Z,71.30
2017-09-08T02:42:44.376Z,71.00
2017-09-08T02:45:11.949Z,71.30
2017-09-08T02:47:39.936Z,71.00
2017-09-08T02:50:07.480Z,71.00
2017-09-08T02:52:35.026Z,70.80
2017-09-08T02:55:02.656Z,70.90
2017-09-08T02:57:31.660Z,70.80
2017-09-08T02:59:59.636Z,70.70
2017-09-08T03:02:28.012Z,70.70
2017-09-08T03:04:55.592Z,70.60
2017-09-08T03:07:23.171Z,70.80
2017-09-08T03:09:50.735Z,70.80
2017-09-08T03:12:18.735Z,70.70
2017-09-08T03:14:46.472Z,70.70
2017-09-08T03:17:14.049Z,70.70
2017-09-08T03:19:41.660Z,70.70
2017-09-08T03:22:09.213Z,70.80
2017-09-08T03:24:36.808Z,70.90
2017-09-08T03:27:04.351Z,70.80
2017-09-08T03:29:31.949Z,70.70
2017-09-08T03:31:59.525Z,70.60
2017-09-08T03:34:27.103Z,70.70
2017-09-08T03:36:55.471Z,70.60
2017-09-08T03:39:23.044Z,70.60
2017-09-08T03:41:50.634Z,70.70
2017-09-08T03:44:18.245Z,70.70
2017-09-08T03:46:45.802Z,70.60
2017-09-08T03:49:13.558Z,70.50
2017-09-08T03:51:41.918Z,70.40
2017-09-08T03:54:09.471Z,70.40
2017-09-08T03:56:37.014Z,70.30
2017-09-08T03:59:04.608Z,70.50
2017-09-08T04:01:32.233Z,70.40
2017-09-08T04:03:59.816Z,70.40
2017-09-08T04:06:27.404Z,70.30
2017-09-08T04:08:54.946Z,70.30
2017-09-08T04:11:22.534Z,70.40
2017-09-08T04:13:50.507Z,70.40
2017-09-08T04:16:18.879Z,70.20
2017-09-08T04:18:46.541Z,70.20
2017-09-08T04:21:14.494Z,70.50
2017-09-08T04:23:42.083Z,70.60
2017-09-08T04:26:09.636Z,70.40
2017-09-08T04:28:37.665Z,70.40
2017-09-08T04:31:05.215Z,70.30
2017-09-08T04:33:32.780Z,70.40
2017-09-08T04:36:00.644Z,70.70
2017-09-08T04:38:28.236Z,70.80
2017-09-08T04:40:55.839Z,70.90
2017-09-08T04:43:23.449Z,71.00
2017-09-08T04:45:51.010Z,70.90
2017-09-08T04:48:18.590Z,70.90
2017-09-08T04:50:47.233Z,70.90
2017-09-08T04:53:14.775Z,70.90
2017-09-08T04:55:42.520Z,70.90
2017-09-08T04:58:10.419Z,70.90
2017-09-08T05:00:37.989Z,70.80
2017-09-08T05:03:05.565Z,70.70
2017-09-08T05:05:33.481Z,70.70
2017-09-08T05:08:01.047Z,70.80
2017-09-08T05:10:28.739Z,70.70
2017-09-08T05:12:56.639Z,70.60
2017-09-08T05:15:24.185Z,70.80
2017-09-08T05:17:51.765Z,71.00
2017-09-08T05:20:20.131Z,70.80
2017-09-08T05:22:47.691Z,70.70
2017-09-08T05:25:16.280Z,70.80
2017-09-08T05:27:44.191Z,70.70
2017-09-08T05:30:11.795Z,70.80
2017-09-08T05:32:39.403Z,70.80
2017-09-08T05:35:07.016Z,70.80
2017-09-08T05:37:34.687Z,70.80
2017-09-08T05:40:03.336Z,70.90
2017-09-08T05:42:31.044Z,70.90
2017-09-08T05:44:59.379Z,70.90
2017-09-08T05:47:26.976Z,70.80
2017-09-08T05:49:55.302Z,70.90
2017-09-08T05:52:23.323Z,70.90
2017-09-08T05:54:52.163Z,71.10
2017-09-08T05:57:19.808Z,71.10
2017-09-08T05:59:47.503Z,70.90
2017-09-08T06:02:15.071Z,70.80
2017-09-08T06:04:43.271Z,70.70
2017-09-08T06:07:11.597Z,70.90
2017-09-08T06:09:39.177Z,70.80
2017-09-08T06:12:06.770Z,70.70
2017-09-08T06:14:34.435Z,70.70
2017-09-08T06:17:02.579Z,70.80
2017-09-08T06:19:30.163Z,70.70
2017-09-08T06:21:57.862Z,70.40
2017-09-08T06:24:25.901Z,70.60
2017-09-08T06:26:53.664Z,70.50
2017-09-08T06:29:22.323Z,70.10
2017-09-08T06:31:49.919Z,70.10
2017-09-08T06:34:17.505Z,70.20
2017-09-08T06:36:45.657Z,70.10
2017-09-08T06:39:13.251Z,70.30
2017-09-08T06:41:41.163Z,69.70
2017-09-08T06:44:08.775Z,69.70
2017-09-08T06:46:36.403Z,69.70
2017-09-08T06:49:04.018Z,69.70
2017-09-08T06:51:31.572Z,69.70
2017-09-08T06:53:59.438Z,69.70
2017-09-08T06:56:27.047Z,69.70
2017-09-08T06:58:54.795Z,69.70
2017-09-08T07:01:23.170Z,70.00
2017-09-08T07:03:50.742Z,69.90
2017-09-08T07:06:19.445Z,69.70
2017-09-08T07:08:46.991Z,69.70
2017-09-08T07:11:14.574Z,69.70
2017-09-08T07:13:42.179Z,69.80
2017-09-08T07:16:09.756Z,69.80
2017-09-08T07:18:37.726Z,69.90
2017-09-08T07:21:06.090Z,69.90
2017-09-08T07:23:33.691Z,69.90
2017-09-08T07:26:01.291Z,70.00
2017-09-08T07:28:28.875Z,70.00
2017-09-08T07:30:56.807Z,70.10
2017-09-08T07:33:24.392Z,70.10
2017-09-08T07:35:51.989Z,69.90
2017-09-08T07:38:20.383Z,69.50
2017-09-08T07:40:47.928Z,69.50
2017-09-08T07:43:16.580Z,68.80
2017-09-08T07:45:44.180Z,68.90
2017-09-08T07:48:11.728Z,68.90
2017-09-08T07:50:40.096Z,68.30
2017-09-08T07:53:07.661Z,68.40
2017-09-08T07:55:36.360Z,68.40
2017-09-08T07:58:04.735Z,67.70
2017-09-08T08:00:32.325Z,67.10
2017-09-08T08:02:59.961Z,67.10
2017-09-08T08:05:27.508Z,67.10
2017-09-08T08:07:56.154Z,67.10
2017-09-08T08:10:23.756Z,67.10
2017-09-08T08:12:51.309Z,67.10
2017-09-08T08:15:19.667Z,67.20
2017-09-08T08:17:47.230Z,67.10
2017-09-08T08:20:15.914Z,67.00
2017-09-08T08:22:44.216Z,66.80
2017-09-08T08:25:12.552Z,66.40
2017-09-08T08:27:40.181Z,66.40
2017-09-08T08:30:07.745Z,65.80
2017-09-08T08:32:35.630Z,66.20
2017-09-08T08:35:03.198Z,65.90
2017-09-08T08:37:30.770Z,66.10
2017-09-08T08:39:58.380Z,66.20
2017-09-08T08:42:26.337Z,66.40
2017-09-08T08:44:54.388Z,66.10
2017-09-08T08:47:22.719Z,66.20
2017-09-08T08:49:50.287Z,66.10
2017-09-08T08:52:17.887Z,65.90
2017-09-08T08:54:45.447Z,66.00
2017-09-08T08:57:14.116Z,66.20
2017-09-08T08:59:41.746Z,66.00
2017-09-08T09:02:09.348Z,65.80
2017-09-08T09:04:36.953Z,65.60
2017-09-08T09:07:04.525Z,65.40
2017-09-08T09:09:32.419Z,65.50
2017-09-08T09:11:59.986Z,65.30
2017-09-08T09:14:27.564Z,65.50
2017-09-08T09:16:55.935Z,65.30
2017-09-08T09:19:23.483Z,65.20
2017-09-08T09:21:52.150Z,65.30
2017-09-08T09:24:19.728Z,65.30
2017-09-08T09:26:47.356Z,65.30
2017-09-08T09:29:15.740Z,64.70
2017-09-08T09:31:43.365Z,65.00
2017-09-08T09:34:11.295Z,64.80
2017-09-08T09:36:39.609Z,64.80
2017-09-08T09:39:07.200Z,64.80
2017-09-08T09:41:34.874Z,64.70
2017-09-08T09:44:02.436Z,64.70
2017-09-08T09:46:30.567Z,64.60
2017-09-08T09:48:58.168Z,64.40
2017-09-08T09:51:25.750Z,64.20
2017-09-08T09:53:54.107Z,63.60
2017-09-08T09:56:21.834Z,63.60
2017-09-08T09:58:49.732Z,63.90
2017-09-08T10:01:17.578Z,64.10
2017-09-08T10:03:45.177Z,64.20
2017-09-08T10:06:12.777Z,64.00
2017-09-08T10:08:40.341Z,64.00
2017-09-08T10:11:08.255Z,63.10
2017-09-08T10:13:35.879Z,63.30
2017-09-08T10:16:03.989Z,63.40
2017-09-08T10:18:31.604Z,63.60
2017-09-08T10:20:59.147Z,63.40
2017-09-08T10:23:27.860Z,62.80
2017-09-08T10:25:55.690Z,62.80
2017-09-08T10:28:24.022Z,63.00
2017-09-08T10:30:51.828Z,63.00
2017-09-08T10:33:20.206Z,63.40
2017-09-08T10:35:48.184Z,62.80
2017-09-08T10:38:17.391Z,62.70
2017-09-08T10:40:44.946Z,62.70
2017-09-08T10:43:13.699Z,63.00
2017-09-08T10:45:42.012Z,63.00
2017-09-08T10:48:11.007Z,62.90
2017-09-08T10:50:39.336Z,62.30
2017-09-08T10:53:06.892Z,62.30
2017-09-08T10:55:34.536Z,61.40
2017-09-08T10:58:02.115Z,61.40
2017-09-08T11:00:30.120Z,61.30
2017-09-08T11:02:58.510Z,60.70
2017-09-08T11:05:28.608Z,60.60
2017-09-08T11:07:56.238Z,60.90
2017-09-08T11:10:23.846Z,60.50
2017-09-08T11:12:52.491Z,60.70
2017-09-08T11:15:20.048Z,60.70
2017-09-08T11:17:47.647Z,60.50
2017-09-08T11:20:16.008Z,60.80
2017-09-08T11:22:43.587Z,60.80
2017-09-08T11:25:12.231Z,60.60
2017-09-08T11:27:40.678Z,60.30
2017-09-08T11:30:08.270Z,60.30
2017-09-08T11:32:41.375Z,60.60
2017-09-08T11:35:14.518Z,60.80
2017-09-08T11:37:42.114Z,60.40
2017-09-08T11:40:09.682Z,60.00
2017-09-08T11:42:37.757Z,60.40
2017-09-08T11:45:05.332Z,60.30
2017-09-08T11:47:32.928Z,61.00
2017-09-08T11:50:00.526Z,60.50
2017-09-08T11:52:28.098Z,60.40
2017-09-08T11:54:55.943Z,59.90
2017-09-08T11:57:23.496Z,59.60
2017-09-08T11:59:51.059Z,59.40
2017-09-08T12:02:18.656Z,59.50
2017-09-08T12:04:47.011Z,60.20
2017-09-08T12:07:15.072Z,59.70
2017-09-08T12:09:42.777Z,59.80
2017-09-08T12:12:10.341Z,60.00
2017-09-08T12:14:38.730Z,59.20
2017-09-08T12:17:07.100Z,59.30
2017-09-08T12:19:35.956Z,59.60
2017-09-08T12:22:03.504Z,58.60
2017-09-08T12:24:31.087Z,58.60
2017-09-08T12:26:58.715Z,58.50
2017-09-08T12:29:26.296Z,58.00
2017-09-08T12:31:54.255Z,58.80
2017-09-08T12:34:24.263Z,57.70
2017-09-08T12:36:51.935Z,57.70
2017-09-08T12:39:19.606Z,58.00
2017-09-08T12:41:47.184Z,58.00
2017-09-08T12:44:15.131Z,57.60
2017-09-08T12:46:42.797Z,57.60
2017-09-08T12:49:10.372Z,58.10
2017-09-08T12:51:39.519Z,58.20
2017-09-08T12:54:07.094Z,58.20
2017-09-08T12:56:35.203Z,58.60
2017-09-08T12:59:03.575Z,58.60
2017-09-08T13:01:31.147Z,58.60
2017-09-08T13:03:59.509Z,57.90
2017-09-08T13:06:27.087Z,57.90
2017-09-08T13:08:55.079Z,58.00
2017-09-08T13:11:23.615Z,57.90
2017-09-08T13:13:51.189Z,57.70
2017-09-08T13:16:19.563Z,57.70
2017-09-08T13:18:47.900Z,57.00
2017-09-08T13:21:15.920Z,58.00
2017-09-08T13:23:44.315Z,56.90
2017-09-08T13:26:11.883Z,56.80
2017-09-08T13:28:40.259Z,57.00
2017-09-08T13:31:08.588Z,56.80
2017-09-08T13:33:36.719Z,56.80
2017-09-08T13:36:04.311Z,57.50
2017-09-08T13:38:31.892Z,57.60
2017-09-08T13:40:59.552Z,57.40
2017-09-08T13:43:27.106Z,57.60
2017-09-08T13:45:55.841Z,57.30
2017-09-08T13:48:24.800Z,57.50
2017-09-08T13:50:52.393Z,57.60
2017-09-08T13:53:20.162Z,57.50
2017-09-08T13:55:47.931Z,57.40
2017-09-08T13:58:15.976Z,57.40
2017-09-08T14:00:44.375Z,57.40
2017-09-08T14:03:11.987Z,57.40
2017-09-08T14:05:40.370Z,57.40
2017-09-08T14:08:09.007Z,57.20
2017-09-08T14:10:36.950Z,57.40
2017-09-08T14:13:05.359Z,57.80
2017-09-08T14:15:33.071Z,57.80
2017-09-08T14:18:01.661Z,58.10
2017-09-08T14:20:29.266Z,58.00
2017-09-08T14:22:58.144Z,57.80
2017-09-08T14:25:25.739Z,58.20
2017-09-08T14:27:53.330Z,57.60
2017-09-08T14:30:20.976Z,57.20
2017-09-08T14:32:48.528Z,57.70
2017-09-08T14:35:16.441Z,57.30
2017-09-08T14:37:44.133Z,57.40
2017-09-08T14:40:11.714Z,56.90
2017-09-08T14:42:39.327Z,56.90
2017-09-08T14:45:06.913Z,56.90
2017-09-08T14:47:34.945Z,57.20
2017-09-08T14:50:03.295Z,57.00
2017-09-08T14:52:30.935Z,57.00
2017-09-08T14:54:58.597Z,57.30
2017-09-08T14:57:26.167Z,57.30
2017-09-08T14:59:54.664Z,57.20
2017-09-08T15:02:22.247Z,57.70
2017-09-08T15:04:49.824Z,57.60
2017-09-08T15:07:18.218Z,57.80
2017-09-08T15:09:45.897Z,57.90
2017-09-08T15:12:13.792Z,57.70
2017-09-08T15:14:41.363Z,57.80
2017-09-08T15:17:08.907Z,58.40
2017-09-08T15:19:36.589Z,58.40
2017-09-08T15:22:04.208Z,58.30
2017-09-08T15:24:32.102Z,58.20
2017-09-08T15:26:59.652Z,58.20
2017-09-08T15:29:27.273Z,58.10
2017-09-08T15:31:54.910Z,59.00
2017-09-08T15:34:23.270Z,58.00
2017-09-08T15:36:52.046Z,57.80
2017-09-08T15:39:19.590Z,57.90
2017-09-08T15:41:47.310Z,57.80
2017-09-08T15:44:14.916Z,57.80
2017-09-08T15:46:43.400Z,58.00
2017-09-08T15:49:11.992Z,57.70
2017-09-08T15:51:39.562Z,57.70
2017-09-08T15:54:07.131Z,57.80
2017-09-08T15:56:34.728Z,59.00
2017-09-08T15:59:02.502Z,57.80
2017-09-08T16:01:30.558Z,57.70
2017-09-08T16:03:58.198Z,57.80
2017-09-08T16:06:26.568Z,57.90
2017-09-08T16:08:54.174Z,57.80
2017-09-08T16:11:21.953Z,57.90
2017-09-08T16:13:49.869Z,57.70
2017-09-08T16:16:18.224Z,59.00
2017-09-08T16:18:45.814Z,58.90
2017-09-08T16:21:14.163Z,59.10
2017-09-08T16:23:41.744Z,58.60
2017-09-08T16:26:10.373Z,59.60
2017-09-08T16:28:38.038Z,59.30
2017-09-08T16:31:06.162Z,59.50
2017-09-08T16:33:34.500Z,60.10
2017-09-08T16:36:03.486Z,59.40
2017-09-08T16:38:31.076Z,59.80
2017-09-08T16:40:58.658Z,59.60
2017-09-08T16:43:27.403Z,59.80
2017-09-08T16:45:55.022Z,59.80
2017-09-08T16:48:23.358Z,60.30
2017-09-08T16:50:50.939Z,60.30
2017-09-08T16:53:19.567Z,60.30
2017-09-08T16:55:48.585Z,60.40
2017-09-08T16:58:16.195Z,60.70
2017-09-08T17:00:44.550Z,61.00
2017-09-08T17:03:12.952Z,61.00
2017-09-08T17:05:40.628Z,61.00
2017-09-08T17:08:08.652Z,61.00
2017-09-08T17:10:36.269Z,61.10
2017-09-08T17:13:03.934Z,61.30
2017-09-08T17:15:31.553Z,61.70
2017-09-08T17:17:59.139Z,61.70
2017-09-08T17:20:30.339Z,61.50
2017-09-08T17:22:58.731Z,61.50
2017-09-08T17:25:27.082Z,62.30
2017-09-08T17:27:56.567Z,62.20
2017-09-08T17:30:24.122Z,62.20
2017-09-08T17:32:55.697Z,62.20
2017-09-08T17:35:23.263Z,62.10
2017-09-08T17:37:50.884Z,62.10
2017-09-08T17:40:19.127Z,62.00
2017-09-08T17:42:47.456Z,62.10
2017-09-08T17:45:15.448Z,62.10
2017-09-08T17:47:43.023Z,62.10
2017-09-08T17:50:10.572Z,62.00
2017-09-08T17:52:38.167Z,62.20
2017-09-08T17:55:08.513Z,62.10
2017-09-08T17:57:36.426Z,63.00
2017-09-08T18:00:04.007Z,62.50
2017-09-08T18:02:31.609Z,62.70
2017-09-08T18:04:59.198Z,62.60
2017-09-08T18:07:26.758Z,62.60
2017-09-08T18:09:55.619Z,62.70
2017-09-08T18:12:23.380Z,62.70
2017-09-08T18:14:51.017Z,62.70
2017-09-08T18:17:20.704Z,62.80
2017-09-08T18:19:48.299Z,62.80
2017-09-08T18:22:18.724Z,63.00
2017-09-08T18:24:46.364Z,63.10
2017-09-08T18:27:14.126Z,62.90
2017-09-08T18:29:41.812Z,63.10
2017-09-08T18:32:09.402Z,63.20
2017-09-08T18:34:37.321Z,63.10
2017-09-08T18:37:05.702Z,63.20
2017-09-08T18:39:33.280Z,63.20
2017-09-08T18:42:01.043Z,63.30
2017-09-08T18:44:28.736Z,63.30
2017-09-08T18:46:56.856Z,63.40
2017-09-08T18:49:25.218Z,63.60
2017-09-08T18:51:52.874Z,63.50
2017-09-08T18:54:25.545Z,63.50
2017-09-08T18:56:55.663Z,63.50
2017-09-08T18:59:23.615Z,63.70
2017-09-08T19:01:51.162Z,63.80
2017-09-08T19:04:19.400Z,63.80
2017-09-08T19:06:49.093Z,63.80
2017-09-08T19:09:16.746Z,64.10
2017-09-08T19:11:44.348Z,64.00
2017-09-08T19:14:12.673Z,64.20
2017-09-08T19:16:40.984Z,64.10
2017-09-08T19:19:08.702Z,64.20
2017-09-08T19:21:36.275Z,64.30
2017-09-08T19:24:10.068Z,64.20
2017-09-08T19:26:38.145Z,64.30
2017-09-08T19:29:06.147Z,64.40
2017-09-08T19:31:33.902Z,64.50
2017-09-08T19:34:02.200Z,64.60
2017-09-08T19:36:30.750Z,64.70
2017-09-08T19:38:58.382Z,64.60
2017-09-08T19:41:26.834Z,64.80
2017-09-08T19:43:54.930Z,64.80
2017-09-08T19:46:24.627Z,64.70
2017-09-08T19:48:53.208Z,65.00
2017-09-08T19:51:25.177Z,64.80
2017-09-08T19:53:52.839Z,64.90
2017-09-08T19:56:20.883Z,65.00
2017-09-08T19:58:48.708Z,65.00
2017-09-08T20:01:16.288Z,65.00
2017-09-08T20:03:44.554Z,65.10
2017-09-08T20:06:12.347Z,65.50
2017-09-08T20:08:41.282Z,65.10
2017-09-08T20:11:08.993Z,65.10
2017-09-08T20:13:38.766Z,65.10
2017-09-08T20:16:07.891Z,65.20
2017-09-08T20:18:35.492Z,65.30
2017-09-08T20:21:03.733Z,65.20
2017-09-08T20:23:31.532Z,65.20
2017-09-08T20:26:04.920Z,65.30
2017-09-08T20:28:33.363Z,65.30
2017-09-08T20:31:01.467Z,65.30
2017-09-08T20:33:29.902Z,65.60
2017-09-08T20:35:58.770Z,65.60
2017-09-08T20:38:26.677Z,65.50
2017-09-08T20:40:54.379Z,65.40
2017-09-08T20:43:21.965Z,65.50
2017-09-08T20:45:49.611Z,65.50
2017-09-08T20:48:18.071Z,65.80
2017-09-08T20:50:46.306Z,65.70
2017-09-08T20:53:14.577Z,65.80
2017-09-08T20:55:42.258Z,66.40
2017-09-08T20:58:09.909Z,65.80
2017-09-08T21:00:37.519Z,65.80
2017-09-08T21:03:05.558Z,65.80
2017-09-08T21:05:33.953Z,65.90
2017-09-08T21:08:01.707Z,65.80
2017-09-08T21:10:30.250Z,65.80
2017-09-08T21:12:57.834Z,65.90
2017-09-08T21:15:25.724Z,65.80
2017-09-08T21:17:54.093Z,65.80
2017-09-08T21:20:21.676Z,65.70
2017-09-08T21:22:49.279Z,65.70
2017-09-08T21:25:17.663Z,65.70
2017-09-08T21:27:45.674Z,65.70
2017-09-08T21:30:14.074Z,65.60
2017-09-08T21:32:41.715Z,65.60
2017-09-08T21:35:09.337Z,65.60
2017-09-08T21:37:36.906Z,65.60
2017-09-08T21:40:04.780Z,66.00
2017-09-08T21:42:32.342Z,66.30
2017-09-08T21:44:59.922Z,66.30
2017-09-08T21:47:28.464Z,66.60
2017-09-08T21:49:56.060Z,66.60
2017-09-08T21:52:24.940Z,66.70
2017-09-08T21:55:00.286Z,66.90
2017-09-08T21:57:28.672Z,66.80
2017-09-08T21:59:57.047Z,67.10
2017-09-08T22:02:24.621Z,67.10
2017-09-08T22:04:52.548Z,67.00
2017-09-08T22:07:20.144Z,67.00
2017-09-08T22:09:48.834Z,67.20
2017-09-08T22:12:16.453Z,67.20
2017-09-08T22:14:44.012Z,67.30
2017-09-08T22:17:11.647Z,67.10
2017-09-08T22:19:39.211Z,67.90
2017-09-08T22:22:07.114Z,67.30
2017-09-08T22:24:34.703Z,67.70
2017-09-08T22:27:02.445Z,67.70
2017-09-08T22:29:30.931Z,67.90
2017-09-08T22:31:59.307Z,68.70
2017-09-08T22:34:27.279Z,68.10
2017-09-08T22:36:56.037Z,68.80
2017-09-08T22:39:23.644Z,68.40
2017-09-08T22:41:52.027Z,68.40
2017-09-08T22:44:19.652Z,68.40
2017-09-08T22:46:47.595Z,68.40
2017-09-08T22:49:15.304Z,68.40
2017-09-08T22:51:43.639Z,68.10
2017-09-08T22:54:11.382Z,68.00
2017-09-08T22:56:39.683Z,67.90
2017-09-08T22:59:07.662Z,67.70
2017-09-08T23:01:36.737Z,67.40
2017-09-08T23:04:04.518Z,67.30
2017-09-08T23:06:32.117Z,67.20
2017-09-08T23:08:59.687Z,67.30
2017-09-08T23:11:27.608Z,67.20
2017-09-08T23:13:55.163Z,67.10
2017-09-08T23:16:23.402Z,66.90
2017-09-08T23:18:51.089Z,66.90
2017-09-08T23:21:18.677Z,66.90
2017-09-08T23:23:46.692Z,66.90
2017-09-08T23:26:14.282Z,66.70
2017-09-08T23:28:41.928Z,66.70
2017-09-08T23:31:09.675Z,66.60
2017-09-08T23:33:37.249Z,66.60
2017-09-08T23:36:05.136Z,66.70
2017-09-08T23:38:32.766Z,66.60
2017-09-08T23:41:00.344Z,66.50
2017-09-08T23:43:27.960Z,66.30
2017-09-08T23:45:58.534Z,66.40
2017-09-08T23:48:33.203Z,66.30
2017-09-08T23:51:01.592Z,66.40
2017-09-08T23:53:30.230Z,66.30
2017-09-08T23:55:57.793Z,66.30
2017-09-08T23:58:35.848Z,66.30
